createdAt,value
2018-08-09T00:00:09.148Z,97375.55
2018-08-09T00:02:37.651Z,97373.84
2018-08-09T00:05:06.340Z,97369.10
2018-08-09T00:07:34.837Z,97366.94
2018-08-09T00:10:03.436Z,97367.38
2018-08-09T00:12:32.017Z,97361.34
2018-08-09T00:15:00.543Z,97365.22
2018-08-09T00:17:29.078Z,97365.22
2018-08-09T00:19:57.580Z,97359.64
2018-08-09T00:22:26.102Z,97351.92
2018-08-09T00:24:54.632Z,97348.05
2018-08-09T00:27:23.120Z,97350.17
2018-08-09T00:29:51.630Z,97353.22
2018-08-09T00:32:20.194Z,97344.60
2018-08-09T00:34:48.918Z,97343.73
2018-08-09T00:37:17.406Z,97341.59
2018-08-09T00:39:45.861Z,97342.44
2018-08-09T00:42:14.329Z,97338.56
2018-08-09T00:44:42.851Z,97338.56
2018-08-09T00:47:11.483Z,97334.28
2018-08-09T00:49:39.994Z,97330.41
2018-08-09T00:52:08.502Z,97321.80
2018-08-09T00:54:37.012Z,97324.38
2018-08-09T00:57:05.712Z,97318.37
2018-08-09T00:59:34.580Z,97318.37
2018-08-09T01:02:03.109Z,97311.47
2018-08-09T01:04:31.613Z,97318.37
2018-08-09T01:07:00.094Z,97314.92
2018-08-09T01:09:28.611Z,97306.76
2018-08-09T01:11:57.145Z,97302.02
2018-08-09T01:14:26.258Z,97298.56
2018-08-09T01:16:54.762Z,97306.75
2018-08-09T01:19:23.262Z,97299.02
2018-08-09T01:21:51.767Z,97305.03
2018-08-09T01:24:20.286Z,97302.05
2018-08-09T01:26:48.768Z,97302.92
2018-08-09T01:29:17.289Z,97298.59
2018-08-09T01:31:45.807Z,97299.46
2018-08-09T01:34:14.463Z,97305.91
2018-08-09T01:36:43.010Z,97307.59
2018-08-09T01:39:13.022Z,97305.00
2018-08-09T01:41:52.755Z,97305.00
2018-08-09T01:44:21.249Z,97298.97
2018-08-09T01:46:49.742Z,97296.38
2018-08-09T01:49:18.385Z,97296.83
2018-08-09T01:51:46.994Z,97298.97
2018-08-09T01:54:15.550Z,97300.27
2018-08-09T01:56:44.061Z,97296.39
2018-08-09T01:59:12.569Z,97302.42
2018-08-09T02:01:41.078Z,97302.84
2018-08-09T02:04:09.586Z,97304.58
2018-08-09T02:06:38.128Z,97306.28
2018-08-09T02:09:09.659Z,97301.13
2018-08-09T02:11:38.139Z,97301.98
2018-08-09T02:14:06.916Z,97298.94
2018-08-09T02:16:35.585Z,97298.95
2018-08-09T02:19:04.074Z,97298.53
2018-08-09T02:21:32.590Z,97280.00
2018-08-09T02:24:01.092Z,97297.66
2018-08-09T02:26:29.632Z,97298.09
2018-08-09T02:28:58.129Z,97291.17
2018-08-09T02:31:26.693Z,97274.81
2018-08-09T02:33:55.222Z,97284.73
2018-08-09T02:36:23.717Z,97290.77
2018-08-09T02:38:52.192Z,97290.75
2018-08-09T02:41:20.747Z,97284.31
2018-08-09T02:43:49.257Z,97296.33
2018-08-09T02:46:17.741Z,97289.05
2018-08-09T02:48:46.242Z,97285.59
2018-08-09T02:51:14.770Z,97289.46
2018-08-09T02:53:43.335Z,97282.59
2018-08-09T02:56:11.818Z,97282.59
2018-08-09T02:58:40.313Z,97276.15
2018-08-09T03:01:08.962Z,97278.73
2018-08-09T03:03:37.492Z,97276.98
2018-08-09T03:06:06.099Z,97278.72
2018-08-09T03:08:34.584Z,97275.24
2018-08-09T03:11:03.079Z,97283.74
2018-08-09T03:13:31.571Z,97278.88
2018-08-09T03:16:00.039Z,97276.17
2018-08-09T03:18:28.510Z,97274.69
2018-08-09T03:20:57.789Z,97272.37
2018-08-09T03:23:26.263Z,97271.34
2018-08-09T03:25:54.890Z,97267.30
2018-08-09T03:28:23.378Z,97265.39
2018-08-09T03:30:51.837Z,97269.03
2018-08-09T03:33:20.356Z,97269.44
2018-08-09T03:35:48.862Z,97270.30
2018-08-09T03:38:17.390Z,97276.67
2018-08-09T03:40:45.940Z,97273.52
2018-08-09T03:43:14.462Z,97279.02
2018-08-09T03:45:42.986Z,97281.94
2018-08-09T03:48:11.485Z,97290.55
2018-08-09T03:50:39.997Z,97291.34
2018-08-09T03:53:08.502Z,97289.59
2018-08-09T03:55:37.055Z,97293.78
2018-08-09T03:58:05.616Z,97289.01
2018-08-09T04:00:34.213Z,97293.53
2018-08-09T04:03:02.698Z,97296.96
2018-08-09T04:05:31.207Z,97305.17
2018-08-09T04:07:59.699Z,97302.25
2018-08-09T04:10:28.276Z,97300.20
2018-08-09T04:12:56.803Z,97299.42
2018-08-09T04:15:25.348Z,97305.00
2018-08-09T04:17:53.921Z,97310.22
2018-08-09T04:20:22.392Z,97309.91
2018-08-09T04:22:50.920Z,97306.14
2018-08-09T04:25:19.424Z,97302.41
2018-08-09T04:27:48.038Z,97311.09
2018-08-09T04:30:16.597Z,97309.05
2018-08-09T04:32:45.115Z,97310.03
2018-08-09T04:35:13.635Z,97316.98
2018-08-09T04:37:42.163Z,97316.66
2018-08-09T04:40:10.712Z,97309.43
2018-08-09T04:42:39.206Z,97311.66
2018-08-09T04:45:08.548Z,97307.41
2018-08-09T04:47:37.039Z,97303.17
2018-08-09T04:50:06.411Z,97305.80
2018-08-09T04:52:34.911Z,97314.02
2018-08-09T04:55:03.413Z,97309.75
2018-08-09T04:57:31.941Z,97306.81
2018-08-09T05:00:00.505Z,97307.70
2018-08-09T05:02:29.246Z,97315.94
2018-08-09T05:04:57.767Z,97306.09
2018-08-09T05:07:26.271Z,97310.42
2018-08-09T05:09:54.775Z,97306.11
2018-08-09T05:12:23.263Z,97304.45
2018-08-09T05:14:51.796Z,97318.64
2018-08-09T05:17:20.309Z,97315.22
2018-08-09T05:19:48.861Z,97321.66
2018-08-09T05:22:21.533Z,97314.83
2018-08-09T05:24:50.036Z,97316.55
2018-08-09T05:27:18.565Z,97316.98
2018-08-09T05:29:47.174Z,97318.27
2018-08-09T05:32:15.661Z,97322.98
2018-08-09T05:34:44.166Z,97325.58
2018-08-09T05:37:12.654Z,97329.91
2018-08-09T05:39:41.137Z,97331.20
2018-08-09T05:42:09.667Z,97314.47
2018-08-09T05:44:38.189Z,97314.89
2018-08-09T05:47:06.686Z,97310.16
2018-08-09T05:49:35.190Z,97314.90
2018-08-09T05:52:03.713Z,97319.65
2018-08-09T05:54:32.201Z,97313.66
2018-08-09T05:57:00.783Z,97316.20
2018-08-09T05:59:29.287Z,97319.70
2018-08-09T06:01:57.843Z,97321.82
2018-08-09T06:04:26.346Z,97316.67
2018-08-09T06:06:54.882Z,97314.97
2018-08-09T06:09:23.434Z,97320.55
2018-08-09T06:11:51.947Z,97314.10
2018-08-09T06:14:20.440Z,97319.27
2018-08-09T06:16:48.990Z,97319.72
2018-08-09T06:19:17.559Z,97319.27
2018-08-09T06:21:46.131Z,97335.60
2018-08-09T06:24:14.630Z,97332.61
2018-08-09T06:26:43.218Z,97330.88
2018-08-09T06:29:11.678Z,97334.33
2018-08-09T06:31:40.178Z,97336.91
2018-08-09T06:34:08.665Z,97328.77
2018-08-09T06:36:37.211Z,97333.05
2018-08-09T06:39:08.098Z,97341.66
2018-08-09T06:41:37.016Z,97341.66
2018-08-09T06:44:05.595Z,97335.22
2018-08-09T06:46:34.098Z,97340.37
2018-08-09T06:49:02.585Z,97348.95
2018-08-09T06:51:31.091Z,97347.24
2018-08-09T06:53:59.577Z,97345.08
2018-08-09T06:56:28.085Z,97342.50
2018-08-09T06:58:56.635Z,97338.64
2018-08-09T07:01:25.163Z,97336.52
2018-08-09T07:03:53.693Z,97338.66
2018-08-09T07:06:22.294Z,97336.95
2018-08-09T07:08:50.809Z,97334.80
2018-08-09T07:11:19.303Z,97329.65
2018-08-09T07:13:47.898Z,97326.66
2018-08-09T07:16:16.418Z,97324.50
2018-08-09T07:18:45.000Z,97326.25
2018-08-09T07:21:13.490Z,97334.81
2018-08-09T07:23:42.051Z,97334.83
2018-08-09T07:26:10.562Z,97327.55
2018-08-09T07:28:39.053Z,97320.22
2018-08-09T07:31:07.563Z,97312.08
2018-08-09T07:33:36.107Z,97319.36
2018-08-09T07:36:04.636Z,97315.08
2018-08-09T07:38:33.121Z,97314.22
2018-08-09T07:41:01.638Z,97311.22
2018-08-09T07:43:30.153Z,97309.52
2018-08-09T07:45:58.652Z,97302.20
2018-08-09T07:48:27.185Z,97302.20
2018-08-09T07:50:55.670Z,97300.05
2018-08-09T07:53:24.146Z,97297.47
2018-08-09T07:55:52.663Z,97308.23
2018-08-09T07:58:21.164Z,97300.92
2018-08-09T08:00:49.699Z,97297.48
2018-08-09T08:03:18.299Z,97293.61
2018-08-09T08:05:46.884Z,97297.48
2018-08-09T08:08:15.356Z,97289.33
2018-08-09T08:10:43.938Z,97289.79
2018-08-09T08:13:12.423Z,97293.23
2018-08-09T08:15:40.964Z,97291.53
2018-08-09T08:18:09.567Z,97288.09
2018-08-09T08:20:38.111Z,97288.95
2018-08-09T08:25:34.151Z,97283.81
2018-08-09T08:28:03.116Z,97275.21
2018-08-09T08:30:31.626Z,97272.21
2018-08-09T08:33:00.149Z,97270.93
2018-08-09T08:35:28.693Z,97088.64
2018-08-09T08:37:57.175Z,97268.76
2018-08-09T08:40:25.662Z,97270.94
2018-08-09T08:42:54.163Z,97262.75
2018-08-09T08:45:22.646Z,97260.17
2018-08-09T08:47:51.122Z,97258.89
2018-08-09T08:50:19.634Z,97255.48
2018-08-09T08:52:48.174Z,97258.06
2018-08-09T08:55:16.850Z,97244.71
2018-08-09T08:57:45.409Z,97245.17
2018-08-09T09:00:14.328Z,97240.86
2018-08-09T09:02:42.887Z,97242.15
2018-08-09T09:05:12.918Z,97235.28
2018-08-09T09:07:41.470Z,97232.29
2018-08-09T09:10:18.447Z,97238.73
2018-08-09T09:12:47.146Z,97234.00
2018-08-09T09:15:16.611Z,97222.40
2018-08-09T09:17:45.606Z,97221.98
2018-08-09T09:20:17.445Z,97218.95
2018-08-09T09:22:46.596Z,97216.83
2018-08-09T09:25:15.291Z,97219.41
2018-08-09T09:27:43.965Z,97204.77
2018-08-09T09:30:14.163Z,97208.64
2018-08-09T09:32:42.706Z,97212.09
2018-08-09T09:35:11.185Z,97212.52
2018-08-09T09:37:40.436Z,97207.81
2018-08-09T09:40:09.711Z,97202.66
2018-08-09T09:42:39.095Z,97207.79
2018-08-09T09:45:08.975Z,97209.91
2018-08-09T09:47:37.839Z,97209.91
2018-08-09T09:50:07.876Z,97206.91
2018-08-09T09:52:36.427Z,97213.36
2018-08-09T09:55:05.764Z,97201.75
2018-08-09T09:57:34.318Z,97205.63
2018-08-09T10:00:03.439Z,97204.75
2018-08-09T10:02:32.488Z,97195.30
2018-08-09T10:05:01.433Z,97200.05
2018-08-09T10:07:30.227Z,97194.89
2018-08-09T10:09:58.727Z,97194.44
2018-08-09T10:12:27.490Z,97187.98
2018-08-09T10:14:56.458Z,97178.12
2018-08-09T10:17:25.385Z,97178.97
2018-08-09T10:19:54.122Z,97183.29
2018-08-09T10:22:22.919Z,97176.85
2018-08-09T10:24:51.494Z,97179.44
2018-08-09T10:27:20.127Z,97173.83
2018-08-09T10:29:48.660Z,97172.13
2018-08-09T10:32:17.195Z,97169.55
2018-08-09T10:34:46.071Z,97161.81
2018-08-09T10:37:14.862Z,97118.76
2018-08-09T10:39:43.779Z,97151.50
2018-08-09T10:42:12.454Z,97151.50
2018-08-09T10:44:41.224Z,97140.31
2018-08-09T10:47:09.894Z,97138.19
2018-08-09T10:49:38.697Z,97140.77
2018-08-09T10:52:07.345Z,97141.61
2018-08-09T10:54:36.174Z,97135.16
2018-08-09T10:57:05.067Z,97131.75
2018-08-09T10:59:33.952Z,97132.17
2018-08-09T11:02:02.663Z,97122.28
2018-08-09T11:04:31.459Z,97127.02
2018-08-09T11:07:00.174Z,97124.44
2018-08-09T11:09:28.900Z,97118.86
2018-08-09T11:11:57.578Z,97118.00
2018-08-09T11:14:26.302Z,97122.73
2018-08-09T11:16:55.349Z,97112.84
2018-08-09T11:19:24.010Z,97100.81
2018-08-09T11:21:52.842Z,97103.81
2018-08-09T11:24:21.732Z,97102.10
2018-08-09T11:26:50.899Z,97102.52
2018-08-09T11:29:19.882Z,97099.08
2018-08-09T11:31:48.748Z,97093.92
2018-08-09T11:34:17.421Z,97092.20
2018-08-09T11:36:46.246Z,97095.66
2018-08-09T11:39:16.059Z,97102.11
2018-08-09T11:41:44.787Z,97102.11
2018-08-09T11:44:14.188Z,97096.95
2018-08-09T11:46:43.459Z,97093.08
2018-08-09T11:49:12.042Z,97087.48
2018-08-09T11:51:40.535Z,97085.34
2018-08-09T11:54:09.677Z,97087.48
2018-08-09T11:56:38.360Z,97083.19
2018-08-09T11:59:06.871Z,97089.64
2018-08-09T12:01:35.529Z,97086.19
2018-08-09T12:04:04.010Z,97092.22
2018-08-09T12:06:32.574Z,97085.36
2018-08-09T12:09:01.117Z,97085.77
2018-08-09T12:11:29.781Z,97080.61
2018-08-09T12:13:58.517Z,97079.33
2018-08-09T12:16:27.203Z,97079.78
2018-08-09T12:18:55.991Z,97071.17
2018-08-09T12:21:24.511Z,97070.76
2018-08-09T12:23:53.025Z,97069.02
2018-08-09T12:26:21.514Z,97066.89
2018-08-09T12:28:50.594Z,97057.86
2018-08-09T12:31:19.062Z,97053.12
2018-08-09T12:33:47.640Z,97052.70
2018-08-09T12:36:16.754Z,97050.13
2018-08-09T12:38:45.247Z,97047.55
2018-08-09T12:41:13.715Z,97040.22
2018-08-09T12:43:42.205Z,97044.52
2018-08-09T12:46:10.727Z,97039.35
2018-08-09T12:48:39.213Z,97030.78
2018-08-09T12:51:07.950Z,97034.64
2018-08-09T12:53:36.503Z,97027.33
2018-08-09T12:56:05.051Z,97023.04
2018-08-09T12:58:33.557Z,97021.30
2018-08-09T13:01:02.048Z,97016.14
2018-08-09T13:03:30.607Z,97023.04
2018-08-09T13:05:59.091Z,97018.30
2018-08-09T13:08:27.881Z,97021.75
2018-08-09T13:10:56.444Z,97018.72
2018-08-09T13:13:24.970Z,97010.56
2018-08-09T13:15:53.442Z,97004.11
2018-08-09T13:18:21.941Z,96996.38
2018-08-09T13:20:50.787Z,96994.22
2018-08-09T13:23:19.539Z,96991.22
2018-08-09T13:25:48.329Z,96985.19
2018-08-09T13:28:16.923Z,96979.61
2018-08-09T13:30:45.729Z,96982.60
2018-08-09T13:33:14.311Z,96979.19
2018-08-09T13:35:43.144Z,96975.31
2018-08-09T13:38:11.995Z,96973.16
2018-08-09T13:40:40.847Z,96970.58
2018-08-09T13:43:09.558Z,96964.55
2018-08-09T13:45:38.239Z,96971.44
2018-08-09T13:48:07.538Z,96960.67
2018-08-09T13:50:36.150Z,96959.38
2018-08-09T13:53:04.747Z,96928.87
2018-08-09T13:55:33.248Z,96951.22
2018-08-09T13:58:01.757Z,96952.52
2018-08-09T14:00:30.235Z,96948.64
2018-08-09T14:02:58.718Z,96949.94
2018-08-09T14:05:27.347Z,96944.77
2018-08-09T14:07:55.847Z,96715.52
2018-08-09T14:10:24.350Z,96946.06
2018-08-09T14:12:52.848Z,96942.20
2018-08-09T14:15:21.330Z,96942.20
2018-08-09T14:17:49.877Z,96941.33
2018-08-09T14:20:18.899Z,96949.52
2018-08-09T14:22:47.382Z,96945.20
2018-08-09T14:25:15.885Z,96941.32
2018-08-09T14:27:44.389Z,96945.64
2018-08-09T14:30:15.015Z,96949.94
2018-08-09T14:32:44.171Z,96946.06
2018-08-09T14:35:15.142Z,96945.20
2018-08-09T14:37:44.611Z,96942.20
2018-08-09T14:40:14.158Z,96947.77
2018-08-09T14:42:42.691Z,96949.06
2018-08-09T14:45:13.608Z,96947.36
2018-08-09T14:47:42.128Z,96942.20
2018-08-09T14:50:10.610Z,96952.52
2018-08-09T14:52:39.096Z,96950.80
2018-08-09T14:55:09.458Z,96958.55
2018-08-09T14:57:37.986Z,96960.67
2018-08-09T15:00:12.637Z,96960.67
2018-08-09T15:02:41.139Z,96953.39
2018-08-09T15:05:09.638Z,96951.23
2018-08-09T15:07:38.172Z,96944.78
2018-08-09T15:10:06.836Z,96952.94
2018-08-09T15:12:35.326Z,96952.09
2018-08-09T15:15:04.143Z,96949.94
2018-08-09T15:17:32.661Z,96953.80
2018-08-09T15:20:01.180Z,96959.39
2018-08-09T15:22:29.728Z,96958.55
2018-08-09T15:24:58.181Z,96951.64
2018-08-09T15:27:26.680Z,96949.52
2018-08-09T15:29:55.189Z,96957.26
2018-08-09T15:32:23.675Z,96954.22
2018-08-09T15:34:52.167Z,96955.52
2018-08-09T15:37:21.145Z,96954.22
2018-08-09T15:39:49.618Z,96954.67
2018-08-09T15:42:18.143Z,96952.94
2018-08-09T15:44:46.698Z,96954.67
2018-08-09T15:47:15.248Z,96949.94
2018-08-09T15:49:43.711Z,96958.55
2018-08-09T15:52:12.233Z,96974.44
2018-08-09T15:54:40.731Z,96964.12
2018-08-09T15:57:09.320Z,96962.83
2018-08-09T15:59:37.808Z,96967.99
2018-08-09T16:02:06.296Z,96966.70
2018-08-09T16:04:34.790Z,96965.42
2018-08-09T16:07:03.289Z,96964.55
2018-08-09T16:09:31.778Z,96959.39
2018-08-09T16:12:00.283Z,96956.80
2018-08-09T16:14:28.787Z,96962.42
2018-08-09T16:16:58.012Z,96954.67
2018-08-09T16:19:26.801Z,96960.25
2018-08-09T16:22:05.828Z,96967.13
2018-08-09T16:24:34.655Z,96971.45
2018-08-09T16:27:03.540Z,96971.86
2018-08-09T16:29:32.744Z,96977.89
2018-08-09T16:32:01.236Z,96992.08
2018-08-09T16:34:30.328Z,97009.69
2018-08-09T16:36:58.804Z,97025.16
2018-08-09T16:39:27.304Z,97038.06
2018-08-09T16:41:55.820Z,97054.83
2018-08-09T16:44:24.351Z,97059.57
2018-08-09T16:46:52.833Z,97052.70
2018-08-09T16:49:21.371Z,97065.60
2018-08-09T16:51:49.878Z,97060.44
2018-08-09T16:55:42.725Z,97069.02
2018-08-09T16:58:11.255Z,97078.92
2018-08-09T17:00:39.742Z,97087.95
2018-08-09T17:03:08.289Z,97085.78
2018-08-09T17:05:36.782Z,97090.53
2018-08-09T17:08:05.311Z,97101.27
2018-08-09T17:10:33.822Z,97107.30
2018-08-09T17:13:02.318Z,97106.88
2018-08-09T17:15:30.818Z,97109.88
2018-08-09T17:17:59.795Z,97111.17
2018-08-09T17:20:31.492Z,97120.20
2018-08-09T17:23:01.040Z,97122.81
2018-08-09T17:25:29.604Z,97098.68
2018-08-09T17:27:58.187Z,97147.75
2018-08-09T17:30:27.798Z,97149.49
2018-08-09T17:32:57.441Z,97140.42
2018-08-09T17:35:25.922Z,97145.63
2018-08-09T17:37:54.989Z,97150.79
2018-08-09T17:40:25.920Z,97156.78
2018-08-09T17:42:55.291Z,97148.20
2018-08-09T17:45:27.506Z,97140.02
2018-08-09T17:47:56.057Z,97142.17
2018-08-09T17:50:24.582Z,97138.30
2018-08-09T17:52:53.701Z,97137.42
2018-08-09T17:55:22.665Z,97140.45
2018-08-09T17:57:51.212Z,97149.50
2018-08-09T18:00:23.406Z,97158.95
2018-08-09T18:02:52.330Z,97162.83
2018-08-09T18:05:20.840Z,97153.38
2018-08-09T18:07:49.401Z,97162.83
2018-08-09T18:10:21.337Z,97170.98
2018-08-09T18:12:49.814Z,97175.31
2018-08-09T18:15:19.030Z,97184.34
2018-08-09T18:17:47.858Z,97191.22
2018-08-09T18:20:17.980Z,97194.22
2018-08-09T18:22:46.667Z,97208.00
2018-08-09T18:25:15.929Z,97217.45
2018-08-09T18:27:44.513Z,97203.70
2018-08-09T18:30:16.259Z,97218.32
2018-08-09T18:32:45.068Z,97221.77
2018-08-09T18:35:16.801Z,97221.31
2018-08-09T18:37:45.427Z,97244.54
2018-08-09T18:40:19.485Z,97250.57
2018-08-09T18:42:48.130Z,97253.56
2018-08-09T18:45:16.953Z,97245.39
2018-08-09T18:47:45.414Z,97261.75
2018-08-09T18:50:17.278Z,97275.49
2018-08-09T18:52:46.000Z,97277.19
2018-08-09T18:55:15.577Z,97284.47
2018-08-09T18:57:44.059Z,97296.95
2018-08-09T19:00:15.042Z,97299.53
2018-08-09T19:02:43.933Z,97310.31
2018-08-09T19:05:12.452Z,97320.59
2018-08-09T19:07:40.980Z,97332.63
2018-08-09T19:10:11.677Z,97345.95
2018-08-09T19:12:40.358Z,97355.38
2018-08-09T19:15:10.446Z,97367.45
2018-08-09T19:17:39.219Z,97372.16
2018-08-09T19:20:17.746Z,97374.30
2018-08-09T19:22:46.431Z,97368.27
2018-08-09T19:25:15.368Z,97379.47
2018-08-09T19:27:44.112Z,97373.42
2018-08-09T19:30:13.797Z,97387.20
2018-08-09T19:32:42.358Z,97389.38
2018-08-09T19:35:13.805Z,97395.37
2018-08-09T19:37:42.475Z,97401.41
2018-08-09T19:40:13.083Z,97409.54
2018-08-09T19:42:41.793Z,97414.27
2018-08-09T19:45:13.330Z,97433.59
2018-08-09T19:47:41.810Z,97435.31
2018-08-09T19:50:12.625Z,97446.08
2018-08-09T19:52:41.229Z,97444.34
2018-08-09T19:55:11.580Z,97451.26
2018-08-09T19:57:41.503Z,97451.69
2018-08-09T20:00:13.064Z,97459.85
2018-08-09T20:02:41.647Z,97459.86
2018-08-09T20:05:10.982Z,97460.31
2018-08-09T20:07:39.878Z,97459.03
2018-08-09T20:10:09.691Z,97461.64
2018-08-09T20:12:38.216Z,97462.92
2018-08-09T20:15:11.669Z,97463.34
2018-08-09T20:17:40.355Z,97474.08
2018-08-09T20:20:09.858Z,97474.52
2018-08-09T20:22:38.374Z,97472.78
2018-08-09T20:25:08.271Z,97470.20
2018-08-09T20:27:36.783Z,97470.66
2018-08-09T20:30:08.070Z,97473.23
2018-08-09T20:32:36.592Z,97481.38
2018-08-09T20:35:07.897Z,97477.93
2018-08-09T20:37:36.451Z,97480.51
2018-08-09T20:40:06.751Z,97484.38
2018-08-09T20:42:35.489Z,97491.29
2018-08-09T20:45:04.946Z,97492.12
2018-08-09T20:47:33.627Z,97494.70
2018-08-09T20:50:02.292Z,97496.44
2018-08-09T20:52:30.907Z,97494.28
2018-08-09T20:54:59.424Z,97499.03
2018-08-09T20:57:28.093Z,97508.48
2018-08-09T20:59:56.590Z,97505.44
2018-08-09T21:02:25.111Z,97511.93
2018-08-09T21:04:53.656Z,97502.41
2018-08-09T21:07:22.183Z,97517.92
2018-08-09T21:09:50.729Z,97519.21
2018-08-09T21:12:19.749Z,97527.40
2018-08-09T21:14:48.368Z,97536.44
2018-08-09T21:17:17.180Z,97539.85
2018-08-09T21:19:45.776Z,97541.60
2018-08-09T21:22:14.303Z,97547.59
2018-08-09T21:24:42.877Z,97559.20
2018-08-09T21:27:11.447Z,97521.20
2018-08-09T21:29:40.007Z,97572.58
2018-08-09T21:32:08.601Z,97581.61
2018-08-09T21:34:37.114Z,97582.89
2018-08-09T21:37:05.632Z,97593.63
2018-08-09T21:39:34.102Z,97582.02
2018-08-09T21:42:02.592Z,97592.75
2018-08-09T21:44:31.071Z,97591.03
2018-08-09T21:46:59.552Z,97583.30
2018-08-09T21:49:28.060Z,97586.30
2018-08-09T21:51:56.573Z,97572.04
2018-08-09T21:54:25.058Z,97579.42
2018-08-09T21:56:53.525Z,97577.70
2018-08-09T21:59:22.091Z,97572.10
2018-08-09T22:01:50.571Z,97568.23
2018-08-09T22:04:20.293Z,97571.27
2018-08-09T22:06:53.934Z,97576.83
2018-08-09T22:09:27.491Z,97575.95
2018-08-09T22:12:01.234Z,97581.99
2018-08-09T22:14:35.033Z,97593.19
2018-08-09T22:17:08.834Z,97597.06
2018-08-09T22:19:42.718Z,97606.50
2018-08-09T22:22:13.286Z,97614.23
2018-08-09T22:24:41.847Z,97614.23
2018-08-09T22:27:11.022Z,97614.25
2018-08-09T22:29:39.504Z,97612.09
2018-08-09T22:32:08.018Z,97612.95
2018-08-09T22:34:36.525Z,97622.84
2018-08-09T22:37:05.063Z,97632.72
2018-08-09T22:39:33.549Z,97631.88
2018-08-09T22:42:02.051Z,97636.58
2018-08-09T22:44:30.555Z,97639.63
2018-08-09T22:46:59.110Z,97640.46
2018-08-09T22:49:27.639Z,97643.50
2018-08-09T22:51:56.144Z,97655.95
2018-08-09T22:54:24.973Z,97662.39
2018-08-09T22:56:53.481Z,97665.44
2018-08-09T22:59:21.964Z,97675.75
2018-08-09T23:01:50.557Z,97677.05
2018-08-09T23:04:19.098Z,97679.62
2018-08-09T23:06:48.188Z,97681.74
2018-08-09T23:09:16.701Z,97686.48
2018-08-09T23:11:45.194Z,97679.12
2018-08-09T23:14:13.705Z,97695.52
2018-08-09T23:16:42.214Z,97698.09
2018-08-09T23:19:10.698Z,97690.34
2018-08-09T23:21:39.213Z,97697.66
2018-08-09T23:24:07.705Z,97698.02
2018-08-09T23:26:36.198Z,97706.23
2018-08-09T23:29:04.723Z,97702.38
2018-08-09T23:31:33.194Z,97710.98
2018-08-09T23:34:01.782Z,97712.28
2018-08-09T23:36:30.762Z,97723.02
2018-08-09T23:38:59.244Z,97723.02
2018-08-09T23:41:27.726Z,97731.64
2018-08-09T23:43:56.227Z,97733.80
2018-08-09T23:46:24.710Z,97722.93
2018-08-09T23:48:53.254Z,97739.80
2018-08-09T23:51:21.768Z,97731.64
2018-08-09T23:53:50.222Z,97726.47
2018-08-09T23:56:19.027Z,97720.89
2018-08-09T23:58:47.535Z,97713.56
